Time;durP1;ratioP1;P1;durP2;ratioP2;P2;SDS_P1;SDS_P2;PMS_P1;PMS_P2;Temp;Humidity;BMP_temperature;BMP_pressure;BME280_temperature;BME280_humidity;BME280_pressure;Samples;Min_cycle;Max_cycle;Signal;HPM_P1;HPM_P2
2022/05/24 00:01:38;;;;;;;10.20;6.07;;;8.90;99.90;8.20;99780;;;;569828;252;24153;-82
2022/05/24 00:04:03;;;;;;;6.27;5.00;;;8.90;99.90;8.20;99773;;;;571125;250;24099;-81
2022/05/24 00:06:31;;;;;;;7.43;4.53;;;8.90;99.90;8.20;99771;;;;571092;251;24113;-81
2022/05/24 00:09:00;;;;;;;7.03;4.37;;;8.90;99.90;8.20;99769;;;;570723;250;24125;-83
2022/05/24 00:11:28;;;;;;;6.37;4.50;;;9.00;99.90;8.20;99766;;;;570665;251;24181;-82
2022/05/24 00:13:56;;;;;;;6.53;4.50;;;9.00;99.90;8.20;99766;;;;569888;252;24090;-81
2022/05/24 00:16:23;;;;;;;6.23;4.83;;;9.00;99.90;8.20;99774;;;;570589;252;24143;-82
2022/05/24 00:18:52;;;;;;;6.67;4.43;;;9.00;99.90;8.20;99764;;;;570436;251;24137;-80
2022/05/24 00:21:22;;;;;;;6.80;4.70;;;9.00;99.90;8.20;99752;;;;570137;251;24137;-81
2022/05/24 00:23:47;;;;;;;5.13;4.03;;;9.00;99.90;8.20;99769;;;;569784;251;24082;-80
2022/05/24 00:26:15;;;;;;;6.20;4.90;;;9.00;99.90;8.20;99760;;;;569996;252;24109;-81
2022/05/24 00:28:43;;;;;;;8.07;4.10;;;9.00;99.90;8.20;99753;;;;569445;251;24105;-83
2022/05/24 00:31:11;;;;;;;5.40;4.27;;;9.00;99.90;8.10;99757;;;;570091;252;24148;-82
2022/05/24 00:33:42;;;;;;;6.90;4.93;;;8.90;99.90;8.10;99759;;;;570072;252;24094;-82
2022/05/24 00:36:07;;;;;;;6.77;4.03;;;8.90;99.90;8.00;99749;;;;569949;249;24067;-83
2022/05/24 00:38:39;;;;;;;5.47;4.27;;;8.80;99.90;8.00;99746;;;;569071;252;24118;-81
2022/05/24 00:41:22;;;;;;;4.53;3.90;;;8.80;99.90;8.00;99748;;;;569799;249;24167;-82
2022/05/24 00:44:05;;;;;;;6.77;4.03;;;8.70;99.90;8.00;99748;;;;569644;250;24134;-81
2022/05/24 00:47:00;;;;;;;9.00;4.67;;;8.70;99.90;8.00;99749;;;;569738;252;24120;-81
2022/05/24 00:49:53;;;;;;;7.33;4.57;;;8.70;99.90;7.90;99742;;;;569750;248;24160;-82
2022/05/24 00:52:23;;;;;;;7.97;4.77;;;8.70;99.90;7.80;99742;;;;568697;250;24095;-82
2022/05/24 00:54:51;;;;;;;5.17;4.33;;;8.60;99.90;7.80;99734;;;;569657;250;24093;-82
2022/05/24 00:57:34;;;;;;;11.07;4.50;;;8.60;99.90;7.70;99735;;;;569679;252;24117;-81
2022/05/24 01:00:13;;;;;;;8.50;4.67;;;8.50;99.90;7.70;99729;;;;569769;250;24097;-81
2022/05/24 01:02:45;;;;;;;5.87;4.77;;;8.50;99.90;7.80;99731;;;;570253;252;24097;-82
2022/05/24 01:05:09;;;;;;;5.17;4.60;;;8.50;99.90;7.80;99726;;;;570114;250;24109;-81
2022/05/24 01:07:37;;;;;;;7.13;4.97;;;8.60;99.90;7.80;99723;;;;570329;250;24085;-81
2022/05/24 01:10:11;;;;;;;7.80;5.27;;;8.60;99.90;7.80;99723;;;;570326;251;24125;-81
2022/05/24 01:12:47;;;;;;;9.10;5.13;;;8.60;99.90;7.80;99712;;;;568718;251;24090;-81
2022/05/24 01:15:19;;;;;;;8.70;4.67;;;8.60;99.90;7.80;99715;;;;570251;250;24108;-82
2022/05/24 01:17:42;;;;;;;7.83;4.90;;;8.60;99.90;7.80;99721;;;;571180;250;24092;-81
2022/05/24 01:20:10;;;;;;;7.73;5.07;;;8.60;99.90;7.80;99718;;;;571121;250;24146;-81
2022/05/24 01:23:08;;;;;;;8.90;4.73;;;8.60;99.90;7.80;99714;;;;571049;250;24154;-82
2022/05/24 01:26:12;;;;;;;6.13;4.40;;;8.60;99.90;7.80;99710;;;;561106;250;24125;-81
2022/05/24 01:28:50;;;;;;;6.97;4.17;;;8.60;99.90;7.80;99700;;;;563733;252;24202;-82
2022/05/24 01:31:16;;;;;;;8.87;4.93;;;8.60;99.90;7.80;99704;;;;570419;251;24155;-81
2022/05/24 01:36:30;;;;;;;4.87;4.37;;;8.60;99.90;7.80;99699;;;;570743;251;24089;-82
2022/05/24 01:39:01;;;;;;;9.03;4.57;;;8.60;99.90;7.80;99698;;;;570721;251;24124;-80
2022/05/24 01:41:32;;;;;;;4.97;4.10;;;8.60;99.90;7.80;99696;;;;570688;250;24073;-82
2022/05/24 01:44:03;;;;;;;8.43;4.73;;;8.60;99.90;7.80;99695;;;;570735;250;24082;-81
2022/05/24 01:46:31;;;;;;;5.77;4.43;;;8.50;99.90;7.80;99690;;;;570527;251;24096;-82
2022/05/24 01:48:59;;;;;;;5.93;3.77;;;8.60;99.90;7.80;99693;;;;571257;247;24084;-82
2022/05/24 01:51:26;;;;;;;9.40;4.67;;;8.50;99.90;7.80;99691;;;;570561;250;24121;-82
2022/05/24 01:53:54;;;;;;;9.30;4.00;;;8.50;99.90;7.80;99680;;;;570222;252;24112;-83
2022/05/24 01:56:25;;;;;;;7.17;4.87;;;8.50;99.90;7.80;99674;;;;570169;251;24132;-83
2022/05/24 01:58:53;;;;;;;10.23;4.77;;;8.50;99.90;7.80;99676;;;;569911;251;24143;-83
2022/05/24 02:01:42;;;;;;;7.90;4.87;;;8.50;99.90;7.80;99673;;;;570872;251;24097;-82
2022/05/24 02:04:10;;;;;;;8.63;4.77;;;8.50;99.90;7.70;99668;;;;570346;250;24323;-82
2022/05/24 02:06:40;;;;;;;6.70;5.20;;;8.50;99.90;7.70;99674;;;;570433;252;24094;-83
2022/05/24 02:09:05;;;;;;;5.00;4.50;;;8.50;99.90;7.70;99668;;;;570309;252;24089;-82
2022/05/24 02:11:34;;;;;;;6.63;4.63;;;8.40;99.90;7.60;99667;;;;570361;250;24100;-83
2022/05/24 02:14:16;;;;;;;5.83;4.90;;;8.40;99.90;7.60;99661;;;;570416;250;24114;-82
2022/05/24 02:16:52;;;;;;;8.53;5.03;;;8.40;99.90;7.50;99658;;;;570463;251;24116;-82
2022/05/24 02:19:24;;;;;;;5.03;4.53;;;8.30;99.90;7.50;99660;;;;570318;250;24124;-83
2022/05/24 02:21:48;;;;;;;6.43;4.40;;;8.20;99.90;7.40;99651;;;;570089;252;24086;-83
2022/05/24 02:24:16;;;;;;;5.73;4.70;;;8.20;99.90;7.40;99657;;;;570027;251;24090;-82
2022/05/24 02:26:44;;;;;;;9.37;5.07;;;8.20;99.90;7.40;99659;;;;570854;250;24104;-80
2022/05/24 02:29:11;;;;;;;6.67;4.80;;;8.10;99.90;7.30;99651;;;;571689;251;24148;-82
2022/05/24 02:31:42;;;;;;;7.83;5.17;;;8.10;99.90;7.30;99651;;;;571367;250;24092;-81
2022/05/24 02:34:07;;;;;;;5.07;4.57;;;8.10;99.90;7.30;99644;;;;570878;250;24084;-82
2022/05/24 02:36:35;;;;;;;9.60;4.87;;;8.00;99.90;7.30;99648;;;;571081;251;24113;-82
2022/05/24 02:39:03;;;;;;;9.93;5.13;;;8.00;99.90;7.30;99647;;;;571135;250;24100;-84
2022/05/24 02:41:33;;;;;;;8.80;5.00;;;8.00;99.90;7.30;99641;;;;570974;251;24193;-82
2022/05/24 02:44:01;;;;;;;9.30;5.13;;;8.00;99.90;7.30;99647;;;;571211;251;24147;-82
2022/05/24 02:46:32;;;;;;;5.37;4.37;;;8.00;99.90;7.30;99642;;;;570630;251;24121;-82
2022/05/24 02:49:00;;;;;;;6.07;5.10;;;8.10;99.90;7.30;99637;;;;570702;247;24121;-82
2022/05/24 02:51:28;;;;;;;10.03;5.53;;;8.10;99.90;7.40;99635;;;;570647;251;24119;-83
2022/05/24 02:53:56;;;;;;;7.50;5.23;;;8.10;99.90;7.40;99640;;;;571120;251;24159;-82
2022/05/24 02:56:27;;;;;;;6.77;4.73;;;8.20;99.90;7.40;99638;;;;570790;251;24117;-83
2022/05/24 02:58:52;;;;;;;8.90;5.50;;;8.20;99.90;7.50;99624;;;;570626;251;24295;-82
2022/05/24 03:01:26;;;;;;;6.60;5.63;;;8.20;99.90;7.50;99625;;;;570686;251;24107;-83
2022/05/24 03:03:50;;;;;;;6.17;5.17;;;8.30;99.90;7.60;99620;;;;570204;249;24183;-82
2022/05/24 03:06:21;;;;;;;5.77;5.10;;;8.30;99.90;7.60;99629;;;;570483;250;24140;-82
2022/05/24 03:14:20;;;;;;;7.40;5.50;;;8.50;99.90;7.80;99618;;;;570482;252;24179;-83
2022/05/24 03:16:49;;;;;;;7.00;5.23;;;8.60;99.90;7.90;99623;;;;570379;250;24092;-83
2022/05/24 03:19:13;;;;;;;6.33;5.17;;;8.70;99.90;8.00;99621;;;;570252;250;24114;-82
2022/05/24 03:21:41;;;;;;;8.90;5.40;;;8.80;99.90;8.20;99621;;;;570599;251;24139;-82
2022/05/24 03:24:09;;;;;;;7.57;5.70;;;8.90;99.90;8.30;99623;;;;570489;252;24101;-82
2022/05/24 03:26:40;;;;;;;5.07;4.57;;;9.00;99.90;8.40;99625;;;;570415;251;24105;-82
2022/05/24 03:29:05;;;;;;;6.83;5.67;;;9.20;99.90;8.90;99623;;;;570156;250;24122;-82
2022/05/24 03:31:35;;;;;;;7.47;5.40;;;9.50;99.90;9.50;99634;;;;570432;250;24101;-83
2022/05/24 03:34:00;;;;;;;5.93;4.77;;;10.10;99.90;10.50;99623;;;;570158;251;24093;-82
2022/05/24 03:36:28;;;;;;;5.33;4.83;;;11.00;99.90;11.60;99631;;;;570874;251;24099;-82
2022/05/24 03:38:56;;;;;;;9.17;6.17;;;12.00;99.90;12.40;99627;;;;571327;250;24079;-83
2022/05/24 03:41:24;;;;;;;7.13;4.60;;;13.00;99.90;13.00;99637;;;;572035;250;24085;-82
2022/05/24 03:43:52;;;;;;;8.40;4.90;;;13.70;99.90;13.70;99633;;;;571408;250;24110;-82
2022/05/24 03:46:20;;;;;;;6.07;4.40;;;14.40;99.90;14.30;99626;;;;571566;250;24113;-82
2022/05/24 03:48:47;;;;;;;5.47;4.47;;;15.00;99.90;14.80;99634;;;;571120;247;24132;-81
2022/05/24 03:51:19;;;;;;;5.70;4.87;;;15.60;99.90;15.60;99628;;;;571387;251;24091;-83
2022/05/24 03:53:47;;;;;;;5.17;4.67;;;16.30;99.90;16.50;99634;;;;571002;250;24143;-83
2022/05/24 03:56:11;;;;;;;6.43;4.60;;;17.10;99.90;17.30;99633;;;;571196;250;24102;-84
2022/05/24 03:58:39;;;;;;;5.80;4.60;;;18.00;99.90;18.00;99626;;;;571121;251;24094;-83
2022/05/24 04:01:07;;;;;;;5.20;4.70;;;18.80;99.90;18.50;99614;;;;570651;251;24074;-84
2022/05/24 04:03:35;;;;;;;4.50;4.00;;;19.40;99.90;19.00;99628;;;;570958;251;24090;-83
2022/05/24 04:06:03;;;;;;;6.07;4.53;;;20.00;99.90;19.60;99633;;;;570609;250;24149;-83
2022/05/24 04:08:30;;;;;;;6.40;5.13;;;20.60;98.90;20.20;99634;;;;571349;250;24082;-82
2022/05/24 04:11:07;;;;;;;5.70;5.20;;;21.20;95.40;20.80;99638;;;;570810;250;24091;-82
2022/05/24 04:13:36;;;;;;;6.93;4.93;;;21.80;92.30;21.30;99639;;;;571208;250;23148;-83
2022/05/24 04:16:03;;;;;;;8.10;4.93;;;22.30;89.30;21.60;99638;;;;570587;252;23130;-83
2022/05/24 04:18:32;;;;;;;7.37;4.70;;;23.30;83.50;22.10;99640;;;;570853;250;24079;-84
2022/05/24 04:20:59;;;;;;;5.60;4.67;;;23.20;83.00;22.60;99635;;;;570335;251;23116;-82
2022/05/24 04:23:27;;;;;;;6.03;5.50;;;23.80;80.50;23.10;99633;;;;570862;250;24104;-83
2022/05/24 04:25:55;;;;;;;8.77;4.50;;;24.30;74.30;23.30;99636;;;;570290;251;24159;-83
2022/05/24 04:28:26;;;;;;;5.03;4.50;;;24.60;71.80;23.70;99634;;;;570716;250;24128;-84
2022/05/24 04:30:54;;;;;;;4.97;4.47;;;24.90;70.10;24.10;99630;;;;570180;251;24142;-82
2022/05/24 04:33:19;;;;;;;5.53;4.73;;;25.40;68.20;24.60;99634;;;;570308;251;24140;-83
2022/05/24 04:35:47;;;;;;;6.33;4.30;;;25.80;66.70;25.10;99632;;;;570376;251;23092;-83
2022/05/24 04:38:15;;;;;;;4.47;4.17;;;26.30;64.40;25.80;99637;;;;570624;250;23114;-83
2022/05/24 04:43:28;;;;;;;8.00;4.60;;;27.50;59.40;26.70;99637;;;;570711;252;23127;-84
2022/05/24 04:45:56;;;;;;;5.00;4.60;;;27.90;57.70;26.70;99647;;;;568632;252;24118;-83
2022/05/24 04:48:27;;;;;;;5.93;4.60;;;28.10;57.20;26.80;99641;;;;568485;251;23112;-84
2022/05/24 04:50:54;;;;;;;4.70;4.30;;;28.20;56.30;26.80;99647;;;;570906;248;23138;-84
2022/05/24 04:53:22;;;;;;;5.40;4.53;;;28.10;55.90;26.50;99649;;;;571632;251;23119;-82
2022/05/24 04:55:50;;;;;;;5.20;4.57;;;27.90;55.60;26.10;99647;;;;571281;250;23087;-82
2022/05/24 04:58:22;;;;;;;5.20;4.70;;;27.20;56.10;25.70;99647;;;;571469;251;23096;-82
2022/05/24 05:00:50;;;;;;;5.17;4.77;;;27.20;56.10;25.30;99642;;;;570444;250;23099;-81
2022/05/24 05:03:17;;;;;;;6.47;5.67;;;26.80;56.30;24.80;99640;;;;571009;250;24069;-83
2022/05/24 05:05:43;;;;;;;5.87;4.63;;;26.30;56.90;23.90;99647;;;;567247;253;24132;-82
2022/05/24 05:08:10;;;;;;;6.73;4.97;;;25.50;58.20;23.50;99638;;;;570663;252;24063;-83
2022/05/24 05:10:38;;;;;;;7.60;5.07;;;25.00;59.50;23.30;99648;;;;569956;250;24070;-82
2022/05/24 05:13:07;;;;;;;7.30;4.87;;;24.40;61.00;23.30;99645;;;;570388;252;24122;-83
2022/05/24 05:15:38;;;;;;;9.10;5.80;;;24.40;61.00;23.90;99644;;;;570031;251;24083;-82
2022/05/24 05:18:06;;;;;;;7.03;5.63;;;24.80;60.70;24.60;99648;;;;569894;251;24102;-82
2022/05/24 05:20:30;;;;;;;6.60;5.40;;;25.40;59.90;25.50;99646;;;;569131;249;24059;-82
2022/05/24 05:22:58;;;;;;;5.50;4.97;;;26.20;58.60;26.30;99645;;;;570319;251;24187;-83
2022/05/24 05:25:26;;;;;;;5.83;5.23;;;27.10;57.10;26.70;99641;;;;570115;252;23136;-82
2022/05/24 05:27:55;;;;;;;6.10;5.50;;;27.80;55.50;26.60;99642;;;;569944;252;23119;-84
2022/05/24 05:33:08;;;;;;;5.83;5.23;;;27.60;55.30;26.20;99635;;;;570059;252;23096;-83
2022/05/24 05:35:36;;;;;;;7.63;4.93;;;27.30;55.90;26.00;99626;;;;569759;252;24102;-82
2022/05/24 05:38:04;;;;;;;5.90;5.27;;;27.10;56.10;26.30;99630;;;;570166;251;23131;-83
2022/05/24 05:40:32;;;;;;;5.40;4.93;;;27.30;56.40;27.60;99629;;;;569740;252;23130;-82
2022/05/24 05:43:00;;;;;;;5.53;5.03;;;28.20;55.60;28.40;99632;;;;570159;252;23118;-84
2022/05/24 05:45:28;;;;;;;9.97;5.73;;;29.10;53.50;28.90;99629;;;;569166;252;23131;-84
2022/05/24 05:47:56;;;;;;;5.67;4.87;;;29.70;52.70;28.90;99626;;;;570128;252;23103;-83
2022/05/24 05:50:23;;;;;;;5.90;5.40;;;29.90;51.70;29.60;99624;;;;569815;248;23093;-82
2022/05/24 05:52:51;;;;;;;5.83;5.23;;;30.40;51.70;30.20;99627;;;;570163;252;23093;-83
2022/05/24 05:55:20;;;;;;;5.32;4.87;;;31.70;49.10;30.80;99623;;;;569902;251;23093;-83
2022/05/24 05:57:48;;;;;;;6.53;4.82;;;31.60;49.00;30.90;99628;;;;570159;252;23125;-84
2022/05/24 06:00:20;;;;;;;5.68;5.18;;;31.90;48.60;31.40;99624;;;;569937;251;23123;-83
2022/05/24 06:02:44;;;;;;;6.75;5.07;;;32.30;48.30;31.30;99631;;;;570892;250;23083;-84
2022/05/24 06:05:11;;;;;;;8.60;5.03;;;32.30;47.80;31.90;99631;;;;570755;251;23114;-82
2022/05/24 06:07:40;;;;;;;6.95;5.55;;;33.40;46.90;32.50;99639;;;;570832;251;23129;-82
2022/05/24 06:10:08;;;;;;;5.68;5.05;;;33.30;46.80;33.00;99638;;;;570461;251;23142;-82
2022/05/24 06:12:36;;;;;;;7.90;5.43;;;34.00;45.90;33.40;99640;;;;565611;251;46005;-82
2022/05/24 06:15:05;;;;;;;6.55;5.72;;;34.70;45.40;33.70;99652;;;;570289;252;23093;-84
2022/05/24 06:17:33;;;;;;;6.00;5.43;;;34.60;44.90;33.70;99642;;;;570420;252;23095;-83
2022/05/24 06:20:00;;;;;;;6.00;5.37;;;34.90;44.10;33.80;99648;;;;570206;251;23099;-83
2022/05/24 06:22:31;;;;;;;6.35;5.07;;;34.90;44.80;34.30;99640;;;;570480;251;23139;-83
2022/05/24 06:24:57;;;;;;;7.68;5.28;;;35.20;43.90;34.70;99646;;;;569939;251;23099;-82
2022/05/24 06:27:25;;;;;;;9.80;6.07;;;35.50;44.20;34.50;99644;;;;570386;250;24150;-83
2022/05/24 06:29:53;;;;;;;7.80;5.55;;;35.50;43.50;34.10;99647;;;;570124;251;23132;-83
2022/05/24 06:32:21;;;;;;;10.40;5.50;;;35.40;43.20;33.60;99644;;;;570441;251;23103;-81
2022/05/24 06:34:51;;;;;;;11.73;6.07;;;34.80;44.20;33.40;99636;;;;570021;252;23105;-83
2022/05/24 06:37:16;;;;;;;21.55;6.85;;;34.60;44.20;33.30;99642;;;;569657;252;23099;-82
2022/05/24 06:39:45;;;;;;;13.43;4.95;;;34.50;44.10;33.50;99640;;;;569777;252;24205;-83
2022/05/24 06:42:13;;;;;;;5.68;4.85;;;34.50;44.00;33.20;99627;;;;569759;252;23127;-84
2022/05/24 06:44:44;;;;;;;10.13;5.28;;;34.30;44.20;33.30;99635;;;;570135;252;23088;-82
2022/05/24 06:47:09;;;;;;;12.73;5.12;;;34.30;44.20;33.90;99629;;;;569740;249;23104;-82
2022/05/24 06:49:37;;;;;;;7.55;4.90;;;35.20;43.50;34.60;99628;;;;569935;248;23100;-83
2022/05/24 06:52:05;;;;;;;9.98;5.10;;;35.20;43.40;34.60;99614;;;;570314;251;23136;-83
2022/05/24 06:54:33;;;;;;;10.98;4.75;;;35.60;42.70;35.30;99621;;;;569912;252;23104;-84
2022/05/24 06:57:02;;;;;;;6.18;4.35;;;36.90;41.20;36.30;99632;;;;569769;251;23107;-83
2022/05/24 07:02:27;;;;;;;18.02;5.15;;;37.10;40.10;35.60;99624;;;;569774;252;23147;-82
2022/05/24 07:04:55;;;;;;;12.02;5.20;;;36.80;40.50;36.10;99611;;;;569723;252;24157;-83
2022/05/24 07:07:24;;;;;;;7.35;4.40;;;36.90;40.90;36.80;99620;;;;569416;250;23145;-83
2022/05/24 07:09:51;;;;;;;12.18;4.55;;;37.40;40.20;36.10;99611;;;;569410;252;23146;-83
2022/05/24 07:12:19;;;;;;;12.35;4.68;;;37.20;39.70;34.90;99602;;;;569720;250;23116;-83
2022/05/24 07:14:47;;;;;;;7.40;3.87;;;36.30;40.30;34.30;99609;;;;571130;250;23121;-82
2022/05/24 07:17:19;;;;;;;19.52;5.03;;;34.90;41.90;33.60;99601;;;;571204;251;23091;-83
2022/05/24 07:19:43;;;;;;;19.75;4.70;;;34.80;41.70;34.10;99608;;;;570584;249;23119;-83
2022/05/24 07:22:11;;;;;;;11.52;4.03;;;34.90;42.10;34.30;99599;;;;570350;252;23111;-84
2022/05/24 07:24:39;;;;;;;8.02;4.00;;;35.20;41.30;33.90;99593;;;;570170;251;23099;-84
2022/05/24 07:27:11;;;;;;;7.30;4.22;;;35.00;41.80;34.20;99599;;;;570800;251;24152;-85
2022/05/24 07:29:39;;;;;;;4.30;3.90;;;35.00;41.80;34.00;99598;;;;570286;250;24117;-84
2022/05/24 07:32:07;;;;;;;8.95;4.37;;;34.50;41.20;33.10;99594;;;;570635;251;23115;-83
2022/05/24 07:34:35;;;;;;;6.45;3.80;;;34.50;41.20;30.90;99591;;;;570010;252;23107;-82
2022/05/24 07:37:03;;;;;;;6.05;3.90;;;32.90;42.40;29.30;99591;;;;570444;250;23124;-82
2022/05/24 07:39:31;;;;;;;8.38;3.55;;;31.20;44.90;28.60;99592;;;;570141;251;24089;-83
2022/05/24 07:47:18;;;;;;;9.37;3.23;;;29.00;48.40;27.40;99578;;;;570544;251;23112;-83
2022/05/24 07:49:46;;;;;;;11.33;3.00;;;28.50;49.40;27.30;99581;;;;570287;248;23132;-83
2022/05/24 07:52:14;;;;;;;6.57;3.20;;;28.20;48.90;27.80;99576;;;;569589;252;24347;-83
2022/05/24 07:54:43;;;;;;;8.23;3.33;;;28.70;48.40;28.00;99571;;;;570188;252;24156;-83
2022/05/24 07:57:11;;;;;;;5.03;3.20;;;28.60;48.30;27.70;99566;;;;569758;252;24116;-83
2022/05/24 07:59:42;;;;;;;13.77;2.70;;;28.50;48.40;26.90;99577;;;;570209;251;24137;-83
2022/05/24 08:02:06;;;;;;;45.87;5.20;;;28.10;48.50;26.10;99574;;;;569543;251;23120;-83
2022/05/24 08:04:34;;;;;;;25.37;3.60;;;27.30;48.70;25.90;99572;;;;570051;251;23089;-82
2022/05/24 08:07:06;;;;;;;7.33;3.33;;;26.80;50.00;25.80;99567;;;;570428;252;23105;-83
2022/05/24 08:09:30;;;;;;;4.07;2.57;;;26.70;50.10;26.00;99563;;;;570631;252;24124;-84
2022/05/24 08:11:58;;;;;;;4.27;2.40;;;26.70;50.30;26.50;99561;;;;570119;251;23092;-82
2022/05/24 08:14:26;;;;;;;6.00;2.80;;;27.00;49.80;26.50;99556;;;;570212;252;24078;-82
2022/05/24 08:16:55;;;;;;;10.60;3.80;;;27.30;49.00;26.70;99569;;;;569704;252;23093;-82
2022/05/24 08:19:22;;;;;;;6.13;2.47;;;27.40;48.90;27.80;99554;;;;569682;252;23128;-81
2022/05/24 08:21:49;;;;;;;7.00;2.47;;;28.20;48.30;29.70;99571;;;;570180;251;23092;-83
2022/05/24 08:24:17;;;;;;;4.53;2.40;;;29.80;46.80;31.00;99557;;;;570097;250;23123;-82
2022/05/24 08:26:45;;;;;;;11.38;2.80;;;31.30;44.30;32.10;99563;;;;571547;250;24113;-82
2022/05/24 08:29:13;;;;;;;19.83;3.35;;;32.50;42.80;33.10;99565;;;;570843;251;23100;-80
2022/05/24 08:31:42;;;;;;;9.25;3.20;;;34.60;40.10;33.60;99564;;;;570467;251;23128;-82
2022/05/24 08:34:10;;;;;;;7.30;2.97;;;34.50;40.00;33.80;99569;;;;570800;251;23114;-83
2022/05/24 08:36:37;;;;;;;17.33;3.97;;;34.90;39.80;33.90;99576;;;;570328;252;23152;-82
2022/05/24 08:39:06;;;;;;;22.67;2.90;;;34.50;39.40;32.90;99561;;;;570194;252;24163;-83
2022/05/24 08:41:55;;;;;;;12.50;3.03;;;34.50;39.30;32.70;99557;;;;570643;251;23103;-83
2022/05/24 08:50:03;;;;;;;6.78;2.55;;;35.40;39.10;34.00;99573;;;;570495;248;24180;-82
2022/05/24 08:52:31;;;;;;;7.30;3.05;;;35.30;39.20;33.40;99546;;;;570811;250;23138;-82
2022/05/24 08:54:59;;;;;;;7.55;2.95;;;34.90;39.70;33.70;99549;;;;570017;251;23111;-82
2022/05/24 08:57:39;;;;;;;6.57;2.40;;;35.10;39.40;34.00;99574;;;;570985;251;23084;-82
2022/05/24 09:00:11;;;;;;;5.05;2.37;;;35.10;39.30;33.80;99555;;;;569574;251;23139;-82
2022/05/24 09:02:37;;;;;;;6.65;2.67;;;35.10;39.00;33.40;99530;;;;570554;251;24134;-82
2022/05/24 09:05:05;;;;;;;9.15;2.92;;;34.80;39.30;33.80;99546;;;;570151;251;23107;-83
2022/05/24 09:07:39;;;;;;;9.40;2.90;;;35.00;39.00;34.50;99538;;;;569435;251;23111;-82
2022/05/24 09:10:25;;;;;;;8.98;2.35;;;35.40;39.20;34.90;99541;;;;570424;250;23124;-82
2022/05/24 09:12:59;;;;;;;6.30;2.58;;;36.00;39.20;35.30;99537;;;;570188;251;24110;-83
2022/05/24 09:19:20;;;;;;;4.37;2.10;;;36.90;36.50;34.10;99543;;;;571139;252;24156;-81
2022/05/24 09:21:52;;;;;;;14.55;3.33;;;35.90;37.10;32.00;99546;;;;570458;250;23092;-82
2022/05/24 09:24:37;;;;;;;15.85;2.50;;;34.00;38.00;30.70;99549;;;;570001;251;23104;-86
2022/05/24 09:27:20;;;;;;;4.95;2.70;;;32.60;39.30;30.30;99540;;;;570380;251;24125;-82
2022/05/24 09:29:54;;;;;;;3.83;1.77;;;31.60;40.60;30.50;99542;;;;570714;250;24075;-84
2022/05/24 09:32:22;;;;;;;9.90;2.80;;;31.50;41.00;30.50;99520;;;;570424;251;23154;-83
2022/05/24 09:34:51;;;;;;;8.50;2.22;;;31.40;41.20;30.30;99512;;;;570556;251;23109;-83
2022/05/24 09:37:25;;;;;;;18.25;2.40;;;31.20;41.40;30.00;99534;;;;570071;250;23144;-83
2022/05/24 09:40:07;;;;;;;3.95;2.20;;;30.90;41.50;30.60;99547;;;;571353;250;23107;-83
2022/05/24 09:42:36;;;;;;;7.87;2.30;;;31.20;41.80;31.70;99547;;;;571230;250;23121;-84
2022/05/24 09:45:22;;;;;;;6.12;2.95;;;32.10;41.20;31.80;99540;;;;571358;250;23100;-83
2022/05/24 09:47:49;;;;;;;12.02;2.20;;;32.70;40.60;31.50;99543;;;;570733;251;23131;-83
2022/05/24 09:50:25;;;;;;;9.77;2.53;;;32.50;40.50;30.70;99547;;;;571088;247;23096;-84
2022/05/24 09:53:13;;;;;;;6.82;2.30;;;31.90;40.80;30.40;99545;;;;571223;251;23133;-81
2022/05/24 09:55:50;;;;;;;11.10;2.28;;;31.40;41.50;30.00;99548;;;;570396;249;24098;-83
2022/05/24 09:58:23;;;;;;;10.55;2.92;;;31.10;41.60;29.10;99551;;;;570517;251;23103;-83
2022/05/24 10:01:00;;;;;;;7.25;2.12;;;30.30;42.40;28.50;99550;;;;570592;251;23095;-82
2022/05/24 10:03:32;;;;;;;3.67;2.20;;;28.80;44.70;27.70;99530;;;;570925;251;23091;-84
2022/05/24 10:06:08;;;;;;;8.10;2.63;;;28.80;44.70;26.80;99534;;;;570629;250;23096;-83
2022/05/24 10:08:36;;;;;;;2.83;2.20;;;27.90;45.50;26.00;99545;;;;571326;250;23097;-83
2022/05/24 10:11:04;;;;;;;12.27;2.60;;;27.00;46.90;25.40;99534;;;;570656;249;24152;-82
2022/05/24 10:13:40;;;;;;;9.07;2.37;;;26.30;48.30;25.00;99532;;;;570545;250;23092;-83
2022/05/24 10:16:11;;;;;;;6.53;2.70;;;25.80;49.40;24.60;99540;;;;570734;251;24086;-85
2022/05/24 10:19:09;;;;;;;3.00;2.43;;;25.30;50.10;24.40;99528;;;;570762;250;24082;-84
2022/05/24 10:21:56;;;;;;;12.50;2.67;;;25.00;50.90;24.10;99538;;;;570852;250;23091;-80
2022/05/24 10:24:38;;;;;;;5.20;2.60;;;24.70;51.00;23.60;99527;;;;570148;251;24086;-80
2022/05/24 10:27:13;;;;;;;7.10;2.40;;;24.00;53.10;23.30;99531;;;;570469;251;24071;-82
2022/05/24 10:29:58;;;;;;;3.60;2.30;;;23.90;53.10;23.00;99534;;;;570543;250;24070;-78
2022/05/24 10:38:47;;;;;;;6.63;2.40;;;23.10;55.30;22.50;99525;;;;570930;252;24078;-79
2022/05/24 10:41:26;;;;;;;4.50;2.07;;;23.10;55.30;22.50;99513;;;;570225;250;24066;-82
2022/05/24 10:44:19;;;;;;;12.20;2.63;;;23.20;55.80;22.70;99499;;;;570560;250;24070;-79
2022/05/24 10:46:58;;;;;;;12.70;2.80;;;23.20;55.80;23.00;99518;;;;570368;250;24136;-82
2022/05/24 10:49:32;;;;;;;8.07;2.47;;;23.70;54.90;23.10;99513;;;;571209;247;24080;-81
2022/05/24 10:52:03;;;;;;;5.63;2.17;;;23.70;54.90;23.20;99516;;;;571009;251;24098;-80
2022/05/24 10:54:51;;;;;;;8.03;2.87;;;23.80;54.90;23.40;99517;;;;571307;250;24124;-81
2022/05/24 10:57:26;;;;;;;6.60;2.80;;;24.00;54.90;23.40;99513;;;;571233;251;24082;-82
2022/05/24 10:59:56;;;;;;;10.60;3.10;;;24.00;54.50;23.50;99525;;;;570987;250;24078;-82
2022/05/24 11:03:00;;;;;;;11.53;2.70;;;24.10;54.40;23.40;99510;;;;571010;250;24144;-83
2022/05/24 11:05:30;;;;;;;9.87;3.00;;;24.10;54.10;23.50;99505;;;;570641;250;24085;-82
2022/05/24 11:08:16;;;;;;;3.93;2.40;;;24.00;55.10;23.80;99503;;;;571061;251;24136;-80
2022/05/24 11:10:46;;;;;;;8.40;2.70;;;24.30;54.90;24.20;99501;;;;571165;251;24070;-82
2022/05/24 11:13:13;;;;;;;8.93;2.77;;;24.70;54.40;24.50;99496;;;;570220;251;24074;-81
2022/05/24 11:15:44;;;;;;;13.60;2.27;;;25.00;52.20;24.50;99510;;;;570970;250;23129;-83
2022/05/24 11:18:17;;;;;;;4.60;2.10;;;25.10;51.90;24.50;99506;;;;570456;251;24086;-82
2022/05/24 11:20:51;;;;;;;6.43;2.43;;;25.10;51.80;24.50;99518;;;;570815;250;24081;-81
2022/05/24 11:23:19;;;;;;;7.20;2.73;;;25.10;51.90;24.40;99519;;;;569982;251;24086;-83
2022/05/24 11:26:02;;;;;;;10.73;2.60;;;25.00;51.80;23.90;99508;;;;570294;251;24149;-81
2022/05/24 11:28:34;;;;;;;7.30;2.10;;;24.20;53.30;23.50;99511;;;;570014;251;24075;-81
2022/05/24 11:31:00;;;;;;;15.13;3.03;;;24.20;53.20;23.30;99520;;;;570294;251;24136;-81
2022/05/24 11:33:35;;;;;;;5.60;2.57;;;24.00;54.10;23.20;99514;;;;566924;251;24097;-81
2022/05/24 11:36:43;;;;;;;6.83;2.60;;;23.70;55.00;23.10;99516;;;;570233;251;24085;-82
2022/05/24 11:39:24;;;;;;;18.33;2.77;;;23.70;55.00;22.90;99509;;;;570609;251;24148;-80
2022/05/24 11:42:29;;;;;;;9.10;2.53;;;23.20;56.20;22.50;99511;;;;570598;251;24114;-83
2022/05/24 11:44:57;;;;;;;10.77;2.27;;;23.10;56.10;22.20;99518;;;;571147;251;24104;-82
2022/05/24 11:47:37;;;;;;;4.10;2.60;;;22.60;57.40;21.90;99506;;;;570842;251;24100;-81
2022/05/24 11:50:08;;;;;;;7.23;2.57;;;22.50;57.40;21.70;99512;;;;569156;249;24071;-83
2022/05/24 11:53:15;;;;;;;6.50;2.10;;;22.30;57.70;21.50;99522;;;;570699;250;24070;-82
2022/05/24 11:56:00;;;;;;;6.57;3.70;;;22.10;58.20;21.40;99519;;;;571026;251;24092;-81
2022/05/24 11:58:31;;;;;;;5.93;2.37;;;22.00;58.30;21.40;99525;;;;571228;252;23088;-81
2022/05/24 12:01:00;;;;;;;6.27;2.00;;;21.90;58.50;21.30;99519;;;;572068;250;24074;-81
2022/05/24 12:09:20;;;;;;;5.57;2.03;;;21.60;58.80;20.90;99522;;;;571542;251;24086;-81
2022/05/24 12:11:48;;;;;;;5.30;2.07;;;21.50;59.30;20.70;99518;;;;571402;251;24091;-82
2022/05/24 12:14:28;;;;;;;10.03;2.07;;;21.30;59.80;20.60;99493;;;;570999;251;24091;-79
2022/05/24 12:16:56;;;;;;;5.17;2.07;;;21.10;60.30;20.40;99522;;;;571128;251;24128;-80
2022/05/24 12:19:40;;;;;;;7.13;2.23;;;21.00;60.80;20.40;99528;;;;571290;250;23105;-80
2022/05/24 12:22:31;;;;;;;14.67;2.73;;;20.90;61.40;20.30;99526;;;;571091;251;23113;-79